Time;durP1;ratioP1;P1;durP2;ratioP2;P2;SDS_P1;SDS_P2;PMS_P1;PMS_P2;Temp;Humidity;BMP_temperature;BMP_pressure;BME280_temperature;BME280_humidity;BME280_pressure;Samples;Min_cycle;Max_cycle;Signal;HPM_P1;HPM_P2
2021/12/14 00:00:58;;;;;;;8.93;7.50;;;10.00;84.70;;;;;;4984559;28;20904;-68
2021/12/14 00:03:26;;;;;;;8.55;7.65;;;10.00;84.70;;;;;;4992047;28;20034;-69
2021/12/14 00:05:53;;;;;;;14.45;8.15;;;10.00;84.80;;;;;;4991985;28;20029;-68
2021/12/14 00:08:19;;;;;;;9.18;8.13;;;10.00;84.70;;;;;;4991462;28;20370;-68
2021/12/14 00:11:26;;;;;;;9.90;7.70;;;10.00;84.80;;;;;;4991640;28;20454;-68
2021/12/14 00:16:08;;;;;;;11.73;8.20;;;10.00;85.00;;;;;;4990808;28;20034;-68
2021/12/14 00:18:35;;;;;;;12.63;8.35;;;10.00;85.10;;;;;;4991590;28;20425;-68
2021/12/14 00:21:06;;;;;;;10.15;8.48;;;10.00;85.10;;;;;;4991672;28;20023;-68
2021/12/14 00:26:18;;;;;;;11.45;8.70;;;10.00;85.30;;;;;;4991492;28;20053;-68
2021/12/14 00:28:44;;;;;;;9.85;8.43;;;9.90;85.30;;;;;;4997547;28;20022;-68
2021/12/14 00:31:15;;;;;;;9.27;8.27;;;9.90;85.40;;;;;;5006573;28;20030;-69
2021/12/14 00:33:42;;;;;;;11.23;8.60;;;9.90;85.50;;;;;;4979871;28;20121;-68
2021/12/14 00:36:11;;;;;;;11.25;9.20;;;9.90;85.40;;;;;;4991266;28;20042;-68
2021/12/14 00:38:40;;;;;;;12.35;8.93;;;9.90;85.40;;;;;;4990170;28;20033;-68
2021/12/14 00:41:10;;;;;;;9.88;8.23;;;9.90;85.60;;;;;;4991250;28;20026;-68
2021/12/14 00:43:35;;;;;;;10.98;8.68;;;9.90;85.60;;;;;;4991324;28;20596;-68
2021/12/14 00:46:02;;;;;;;12.23;8.95;;;9.90;85.70;;;;;;4990574;28;20498;-68
2021/12/14 00:48:28;;;;;;;10.38;8.77;;;9.90;85.70;;;;;;4988135;28;20104;-68
2021/12/14 00:50:56;;;;;;;9.63;8.63;;;9.90;85.80;;;;;;4989546;28;20030;-68
2021/12/14 00:53:23;;;;;;;11.82;9.30;;;9.90;85.90;;;;;;4988205;28;20037;-68
2021/12/14 00:55:51;;;;;;;10.48;9.30;;;9.90;85.80;;;;;;4979495;28;20019;-68
2021/12/14 00:58:19;;;;;;;11.02;9.75;;;10.00;85.90;;;;;;4988465;28;20018;-68
2021/12/14 01:00:52;;;;;;;12.35;9.68;;;9.90;85.70;;;;;;4989322;28;20530;-68
2021/12/14 01:03:18;;;;;;;11.52;9.20;;;9.90;85.80;;;;;;4989623;28;20030;-68
2021/12/14 01:05:47;;;;;;;10.88;9.75;;;9.90;85.90;;;;;;4988877;28;20579;-68
2021/12/14 01:08:23;;;;;;;11.20;9.73;;;9.90;86.00;;;;;;4989318;28;20035;-69
2021/12/14 01:11:11;;;;;;;11.75;10.00;;;9.90;86.10;;;;;;4988148;28;20090;-68
2021/12/14 01:13:43;;;;;;;12.68;10.00;;;9.90;86.10;;;;;;4985073;28;20058;-68
2021/12/14 01:16:30;;;;;;;10.85;9.75;;;9.90;86.00;;;;;;4988291;28;20375;-68
2021/12/14 01:19:20;;;;;;;10.77;9.63;;;9.90;86.10;;;;;;4989631;28;20390;-69
2021/12/14 01:22:13;;;;;;;11.20;10.00;;;9.90;86.10;;;;;;4978036;28;20034;-69
2021/12/14 01:27:16;;;;;;;11.73;10.52;;;9.90;86.20;;;;;;4990030;28;20030;-69
2021/12/14 01:29:46;;;;;;;13.57;11.10;;;9.90;86.30;;;;;;4990180;28;20038;-68
2021/12/14 01:32:12;;;;;;;11.77;9.93;;;9.90;86.70;;;;;;4989931;28;20054;-68
2021/12/14 01:34:38;;;;;;;12.90;11.60;;;9.90;86.40;;;;;;5002631;28;20481;-69
2021/12/14 01:37:14;;;;;;;12.52;11.10;;;9.90;86.50;;;;;;4988450;28;20037;-68
2021/12/14 01:42:26;;;;;;;13.02;11.02;;;9.80;86.60;;;;;;4990027;28;20042;-68
2021/12/14 01:45:20;;;;;;;11.95;10.70;;;9.80;86.80;;;;;;4990798;28;20101;-69
2021/12/14 01:47:50;;;;;;;12.05;10.73;;;9.80;86.90;;;;;;4988389;28;20373;-69
2021/12/14 01:50:26;;;;;;;12.35;10.63;;;9.80;86.80;;;;;;4989608;28;20382;-69
2021/12/14 01:52:52;;;;;;;12.98;11.55;;;9.80;86.80;;;;;;4990076;28;20113;-69
2021/12/14 01:55:28;;;;;;;14.07;12.15;;;9.80;86.80;;;;;;4988786;28;20559;-69
2021/12/14 01:57:56;;;;;;;13.60;11.68;;;9.80;86.80;;;;;;4989518;28;20033;-69
2021/12/14 02:01:03;;;;;;;15.45;13.05;;;9.80;86.80;;;;;;4987934;28;20093;-68
2021/12/14 02:03:39;;;;;;;13.43;11.93;;;9.80;86.80;;;;;;4989732;28;20029;-69
2021/12/14 02:06:05;;;;;;;14.00;11.23;;;9.80;86.80;;;;;;4989746;28;20473;-69
2021/12/14 02:08:38;;;;;;;13.75;11.57;;;9.80;86.90;;;;;;4987681;28;20105;-68
2021/12/14 02:11:06;;;;;;;15.85;12.40;;;9.80;86.90;;;;;;4989291;28;20097;-69
2021/12/14 02:13:43;;;;;;;13.93;11.50;;;9.80;87.00;;;;;;4989690;28;20489;-68
2021/12/14 02:16:13;;;;;;;14.07;11.75;;;9.80;87.10;;;;;;4989027;28;20481;-68
2021/12/14 02:18:43;;;;;;;14.30;12.70;;;9.80;87.10;;;;;;4995850;28;20037;-68
2021/12/14 02:21:11;;;;;;;16.90;12.43;;;9.80;87.10;;;;;;4995988;28;20521;-69
2021/12/14 02:23:42;;;;;;;14.55;12.68;;;9.80;87.20;;;;;;4996366;28;20033;-68
2021/12/14 02:26:12;;;;;;;15.05;12.55;;;9.80;87.20;;;;;;4996344;28;20060;-68
2021/12/14 02:28:39;;;;;;;14.00;11.95;;;9.80;87.20;;;;;;4996593;28;20037;-68
2021/12/14 02:31:09;;;;;;;14.75;13.10;;;9.80;87.10;;;;;;4995821;28;20113;-68
2021/12/14 02:33:38;;;;;;;16.50;11.85;;;9.70;87.10;;;;;;4994358;28;20042;-68
2021/12/14 02:36:08;;;;;;;15.13;13.07;;;9.80;87.20;;;;;;4994018;28;20034;-68
2021/12/14 02:38:40;;;;;;;15.05;12.93;;;9.70;87.20;;;;;;4997272;28;20030;-68
2021/12/14 02:41:07;;;;;;;15.77;12.60;;;9.70;87.30;;;;;;5005591;28;20025;-69
2021/12/14 02:43:44;;;;;;;14.85;12.77;;;9.70;87.40;;;;;;5015509;28;20401;-68
2021/12/14 02:46:22;;;;;;;15.77;12.77;;;9.70;87.40;;;;;;4981577;28;20497;-68
2021/12/14 02:48:52;;;;;;;17.00;13.77;;;9.70;87.40;;;;;;4983407;28;20181;-68
2021/12/14 02:51:33;;;;;;;16.23;13.55;;;9.70;87.40;;;;;;4994746;28;20768;-69
2021/12/14 02:54:12;;;;;;;18.92;13.93;;;9.70;87.50;;;;;;4994545;28;20078;-68
2021/12/14 02:56:41;;;;;;;15.82;12.98;;;9.60;87.50;;;;;;4994560;28;20022;-68
2021/12/14 02:59:19;;;;;;;14.35;12.85;;;9.60;87.50;;;;;;4994570;28;20033;-68
2021/12/14 03:01:47;;;;;;;16.45;14.10;;;9.70;87.70;;;;;;4994700;28;20030;-68
2021/12/14 03:04:13;;;;;;;16.25;13.45;;;9.60;87.60;;;;;;4994779;28;20026;-68
2021/12/14 03:06:48;;;;;;;16.08;13.60;;;9.60;87.60;;;;;;4994645;28;20034;-68
2021/12/14 03:09:39;;;;;;;17.15;13.82;;;9.60;87.70;;;;;;4994840;28;20192;-68
2021/12/14 03:12:11;;;;;;;17.25;14.30;;;9.70;87.70;;;;;;4994685;28;20093;-68
2021/12/14 03:14:38;;;;;;;15.23;13.38;;;9.70;87.60;;;;;;4994951;28;20053;-69
2021/12/14 03:17:04;;;;;;;18.25;14.88;;;9.70;87.60;;;;;;4994875;28;20082;-68
2021/12/14 03:19:30;;;;;;;18.17;15.50;;;9.60;87.50;;;;;;4995498;28;20097;-68
2021/12/14 03:21:56;;;;;;;19.48;14.88;;;9.60;87.50;;;;;;4995700;28;20030;-68
2021/12/14 03:24:22;;;;;;;16.67;14.63;;;9.70;87.70;;;;;;4994122;28;20370;-68
2021/12/14 03:26:51;;;;;;;18.20;15.95;;;9.60;87.60;;;;;;4994761;28;20030;-68
2021/12/14 03:29:29;;;;;;;17.95;14.50;;;9.60;87.60;;;;;;4991665;28;20109;-68
2021/12/14 03:31:57;;;;;;;16.70;14.27;;;9.60;87.60;;;;;;4992081;28;20034;-68
2021/12/14 03:34:26;;;;;;;17.52;14.90;;;9.60;88.20;;;;;;4990833;28;20045;-68
2021/12/14 03:37:00;;;;;;;18.90;15.88;;;9.70;87.70;;;;;;4992124;28;20026;-69
2021/12/14 03:39:30;;;;;;;20.60;16.50;;;9.60;88.30;;;;;;4991891;28;20109;-69
2021/12/14 03:42:04;;;;;;;17.02;14.40;;;9.60;87.80;;;;;;4991880;28;20037;-68
2021/12/14 03:44:34;;;;;;;19.20;15.75;;;9.60;87.80;;;;;;4998826;28;20029;-69
2021/12/14 03:47:17;;;;;;;22.58;16.88;;;9.60;87.70;;;;;;4991326;28;20552;-69
2021/12/14 03:49:47;;;;;;;19.38;15.85;;;9.60;87.60;;;;;;4992399;28;20027;-69
2021/12/14 03:52:16;;;;;;;20.02;15.93;;;9.60;87.70;;;;;;4990817;28;20057;-69
2021/12/14 03:54:42;;;;;;;18.15;15.18;;;9.60;87.70;;;;;;4992080;28;20504;-69
2021/12/14 03:57:09;;;;;;;17.85;14.95;;;9.60;87.70;;;;;;4990944;28;20031;-68
2021/12/14 03:59:35;;;;;;;18.48;15.20;;;9.60;87.70;;;;;;4992383;28;20030;-69
2021/12/14 04:02:05;;;;;;;20.48;16.60;;;9.60;87.70;;;;;;4991682;28;20078;-69
2021/12/14 04:04:36;;;;;;;19.52;15.73;;;9.60;87.80;;;;;;4991931;28;20033;-69
2021/12/14 04:07:06;;;;;;;18.53;15.20;;;9.60;87.80;;;;;;4990176;28;20035;-69
2021/12/14 04:09:35;;;;;;;19.60;16.15;;;9.60;87.80;;;;;;4992075;28;20034;-69
2021/12/14 04:12:02;;;;;;;16.88;15.02;;;9.60;87.80;;;;;;4992037;28;20072;-68
2021/12/14 04:14:29;;;;;;;18.88;15.60;;;9.60;87.80;;;;;;4990097;28;20482;-68
2021/12/14 04:16:57;;;;;;;19.73;15.75;;;9.60;87.80;;;;;;4990123;28;20018;-68
2021/12/14 04:19:24;;;;;;;22.60;17.02;;;9.60;87.80;;;;;;4991934;28;20103;-68
2021/12/14 04:21:51;;;;;;;19.83;16.45;;;9.60;87.80;;;;;;4991541;28;20049;-68
2021/12/14 04:24:24;;;;;;;17.67;14.85;;;9.60;87.80;;;;;;4988577;28;20053;-69
2021/12/14 04:26:52;;;;;;;19.95;15.90;;;9.60;87.80;;;;;;4988476;28;20034;-68
2021/12/14 04:29:19;;;;;;;18.27;14.95;;;9.60;88.40;;;;;;4990931;28;20489;-69
2021/12/14 04:31:46;;;;;;;21.05;16.77;;;9.60;87.80;;;;;;4990992;28;20088;-68
2021/12/14 04:34:17;;;;;;;19.13;16.08;;;9.60;87.60;;;;;;4990316;28;20034;-68
2021/12/14 04:36:46;;;;;;;22.15;16.70;;;9.60;87.60;;;;;;4978773;28;20027;-69
2021/12/14 04:39:50;;;;;;;20.08;16.67;;;9.60;87.70;;;;;;4985791;28;20034;-68
2021/12/14 04:53:55;;;;;;;18.60;14.95;;;9.50;87.80;;;;;;4977818;28;20038;-69
2021/12/14 04:56:27;;;;;;;18.05;15.85;;;9.50;87.90;;;;;;4989305;28;20027;-69
2021/12/14 04:58:58;;;;;;;;;;;9.50;88.00;;;;;;4989897;28;20023;-68
2021/12/14 05:01:24;;;;;;;16.90;14.35;;;9.50;87.90;;;;;;4987836;28;20471;-69
2021/12/14 05:03:57;;;;;;;15.90;13.75;;;9.40;88.00;;;;;;4990051;28;20022;-68
2021/12/14 05:06:31;;;;;;;19.63;15.80;;;9.40;88.00;;;;;;4988157;28;20069;-69
2021/12/14 05:09:21;;;;;;;18.40;14.88;;;9.50;88.00;;;;;;4989250;28;20030;-68
2021/12/14 05:11:53;;;;;;;17.95;14.48;;;9.50;88.00;;;;;;4989158;28;20545;-68
2021/12/14 05:14:20;;;;;;;29.98;15.48;;;9.50;88.00;;;;;;4990046;28;20062;-68
2021/12/14 05:16:46;;;;;;;18.33;14.43;;;9.50;88.00;;;;;;4989483;28;20473;-68
2021/12/14 05:19:13;;;;;;;18.77;14.80;;;9.50;88.00;;;;;;4990577;28;20057;-69
2021/12/14 05:21:45;;;;;;;19.17;14.35;;;9.50;88.00;;;;;;4989384;28;20053;-69
2021/12/14 05:24:15;;;;;;;17.25;14.13;;;9.50;87.90;;;;;;4987980;28;21036;-69
2021/12/14 05:26:43;;;;;;;16.05;13.57;;;9.50;87.80;;;;;;4988927;28;20101;-68
2021/12/14 05:29:10;;;;;;;16.48;13.77;;;9.50;87.70;;;;;;4987793;28;20026;-69
2021/12/14 05:31:48;;;;;;;16.48;13.55;;;9.50;87.80;;;;;;4990588;28;20429;-69
2021/12/14 05:34:14;;;;;;;64.88;15.52;;;9.50;87.70;;;;;;4990058;28;20034;-69
2021/12/14 05:36:42;;;;;;;16.08;13.88;;;9.50;87.50;;;;;;4989506;28;20065;-68
2021/12/14 05:40:18;;;;;;;17.60;13.90;;;9.50;87.60;;;;;;4990179;28;20030;-68
2021/12/14 05:44:46;;;;;;;18.15;13.48;;;9.50;87.50;;;;;;4990146;28;20628;-68
2021/12/14 05:47:17;;;;;;;14.70;12.13;;;9.40;87.40;;;;;;4989192;28;20018;-68
2021/12/14 05:49:46;;;;;;;15.45;11.85;;;9.40;87.50;;;;;;4990199;28;20603;-68
2021/12/14 05:52:22;;;;;;;15.15;11.90;;;9.40;87.60;;;;;;4989499;28;20027;-68
2021/12/14 05:54:48;;;;;;;15.35;11.85;;;9.40;87.60;;;;;;4995467;28;20026;-69
2021/12/14 05:57:19;;;;;;;16.35;12.02;;;9.40;87.50;;;;;;4994014;28;20385;-69
2021/12/14 05:59:46;;;;;;;16.33;12.90;;;9.40;88.00;;;;;;4989900;28;20478;-69
2021/12/14 06:02:12;;;;;;;16.10;12.05;;;9.50;87.50;;;;;;4989709;28;20022;-69
2021/12/14 06:04:45;;;;;;;14.27;11.65;;;9.50;87.40;;;;;;4988865;28;20034;-68
2021/12/14 06:07:12;;;;;;;11.80;9.75;;;9.40;87.40;;;;;;4988960;28;20031;-69
2021/12/14 06:09:43;;;;;;;13.52;10.75;;;9.50;87.50;;;;;;4988240;28;20521;-68
2021/12/14 06:12:20;;;;;;;15.77;12.48;;;9.50;87.40;;;;;;4988281;28;20065;-68
2021/12/14 06:14:58;;;;;;;18.60;12.45;;;9.50;87.20;;;;;;4988542;28;20037;-68
2021/12/14 06:17:30;;;;;;;17.25;13.35;;;9.50;87.30;;;;;;4987806;28;20402;-69
2021/12/14 06:20:00;;;;;;;15.82;12.70;;;9.50;87.10;;;;;;4989864;28;20010;-69
2021/12/14 06:22:26;;;;;;;18.38;13.10;;;9.40;87.10;;;;;;4987861;28;20109;-68
2021/12/14 06:25:02;;;;;;;18.20;13.25;;;9.40;87.20;;;;;;4972491;28;20035;-68
2021/12/14 06:27:30;;;;;;;17.17;12.82;;;9.40;87.20;;;;;;4981638;28;20398;-68
2021/12/14 06:30:06;;;;;;;16.25;11.50;;;9.50;87.20;;;;;;4983083;28;20023;-68
2021/12/14 06:32:39;;;;;;;14.70;11.25;;;9.50;87.30;;;;;;4986400;28;20038;-68
2021/12/14 06:35:08;;;;;;;17.65;13.35;;;9.50;87.20;;;;;;4988894;28;20029;-68
2021/12/14 06:40:34;;;;;;;17.33;13.45;;;9.40;87.20;;;;;;4988514;28;20034;-68
2021/12/14 06:43:08;;;;;;;16.60;12.32;;;9.40;87.30;;;;;;4988603;28;20026;-68
2021/12/14 06:45:39;;;;;;;21.25;13.50;;;9.40;87.20;;;;;;4988098;28;20034;-69
2021/12/14 06:48:20;;;;;;;17.45;13.82;;;9.50;87.30;;;;;;4983473;28;20109;-68
2021/12/14 06:51:00;;;;;;;18.50;14.18;;;9.50;87.20;;;;;;4973635;28;20109;-68
2021/12/14 06:53:26;;;;;;;17.50;13.10;;;9.40;87.10;;;;;;4988795;28;20030;-68
2021/12/14 06:55:55;;;;;;;17.40;13.25;;;9.40;87.20;;;;;;4988093;28;20513;-68
2021/12/14 06:58:28;;;;;;;18.65;13.68;;;9.40;87.30;;;;;;4988607;28;20022;-69
2021/12/14 07:01:18;;;;;;;18.73;14.40;;;9.40;87.30;;;;;;4999344;28;20021;-68
2021/12/14 07:03:50;;;;;;;19.55;13.63;;;9.40;87.20;;;;;;4989214;28;20030;-68
2021/12/14 07:06:32;;;;;;;19.83;13.85;;;9.40;87.10;;;;;;4973514;28;20030;-69
2021/12/14 07:09:33;;;;;;;20.40;15.05;;;9.40;87.10;;;;;;4989907;28;20493;-69
2021/12/14 07:12:10;;;;;;;19.25;14.35;;;9.40;87.10;;;;;;4973464;28;20113;-69
2021/12/14 07:14:50;;;;;;;19.50;14.35;;;9.40;87.20;;;;;;4972151;28;20027;-69
2021/12/14 07:17:30;;;;;;;18.13;13.98;;;9.40;87.30;;;;;;4972315;28;20503;-69
2021/12/14 07:20:00;;;;;;;20.77;14.75;;;9.40;87.20;;;;;;4991184;28;20026;-69
2021/12/14 07:22:32;;;;;;;20.17;14.27;;;9.50;87.30;;;;;;4992798;28;20486;-70
2021/12/14 07:24:59;;;;;;;20.50;14.57;;;9.40;87.90;;;;;;4991617;28;20454;-69
2021/12/14 07:27:31;;;;;;;22.52;16.85;;;9.50;87.20;;;;;;4990989;28;20058;-69
2021/12/14 07:30:17;;;;;;;20.40;14.65;;;9.50;87.20;;;;;;4991665;28;20113;-69
2021/12/14 07:32:51;;;;;;;21.27;16.63;;;9.50;87.30;;;;;;4992504;28;20030;-68
2021/12/14 07:35:27;;;;;;;21.52;16.63;;;9.50;87.10;;;;;;4992515;28;20030;-69
2021/12/14 07:37:57;;;;;;;22.10;17.02;;;9.40;87.10;;;;;;4992211;28;20033;-69
2021/12/14 07:40:31;;;;;;;21.65;16.98;;;9.40;87.10;;;;;;4991200;28;20466;-69
2021/12/14 07:43:18;;;;;;;20.63;15.90;;;9.50;87.20;;;;;;4991348;28;20110;-69
2021/12/14 07:45:46;;;;;;;24.13;17.55;;;9.40;87.20;;;;;;4991706;28;20034;-69
2021/12/14 07:48:12;;;;;;;21.63;17.85;;;9.50;87.20;;;;;;4992397;28;20026;-70
2021/12/14 07:50:53;;;;;;;19.75;15.45;;;9.50;87.20;;;;;;4992377;28;20030;-69
2021/12/14 07:53:33;;;;;;;20.70;15.70;;;9.50;87.30;;;;;;4991076;28;20069;-69
2021/12/14 07:55:59;;;;;;;20.33;15.75;;;9.50;87.20;;;;;;4990229;28;20045;-69
2021/12/14 07:58:42;;;;;;;24.40;17.63;;;9.50;87.30;;;;;;4992249;28;20025;-70
2021/12/14 08:01:08;;;;;;;;;;;9.50;87.20;;;;;;4990419;28;20771;-70
2021/12/14 08:03:36;;;;;;;25.48;17.13;;;9.50;87.10;;;;;;4990977;28;19921;-69
2021/12/14 08:06:07;;;;;;;20.73;16.70;;;9.40;87.10;;;;;;5003516;28;20089;-68
2021/12/14 08:09:07;;;;;;;22.90;17.65;;;9.40;87.30;;;;;;4991738;28;20045;-68
2021/12/14 08:11:46;;;;;;;22.13;17.75;;;9.50;87.40;;;;;;4987809;28;20450;-68
2021/12/14 08:14:22;;;;;;;24.63;18.20;;;9.50;87.30;;;;;;4991253;28;20116;-70
2021/12/14 08:17:04;;;;;;;24.48;19.00;;;9.50;87.40;;;;;;4990694;28;20042;-70
2021/12/14 08:19:38;;;;;;;23.05;18.17;;;9.40;87.30;;;;;;4976725;28;20540;-68
2021/12/14 08:22:15;;;;;;;23.75;18.10;;;9.40;87.40;;;;;;4985569;28;20335;-68
2021/12/14 08:24:49;;;;;;;23.40;17.67;;;9.40;87.50;;;;;;4983502;28;20062;-68
2021/12/14 08:27:20;;;;;;;23.95;18.40;;;9.50;87.50;;;;;;4990142;28;20034;-68
2021/12/14 08:29:50;;;;;;;24.08;18.25;;;9.50;87.50;;;;;;4990157;28;20069;-68
2021/12/14 08:32:23;;;;;;;26.25;20.85;;;9.50;87.40;;;;;;4989419;28;20054;-68
2021/12/14 08:34:51;;;;;;;25.70;19.55;;;9.50;87.20;;;;;;4990987;28;20077;-69
2021/12/14 08:37:24;;;;;;;26.25;20.45;;;9.50;87.30;;;;;;4989863;28;20033;-68
2021/12/14 08:39:57;;;;;;;24.88;17.98;;;9.40;87.40;;;;;;4990429;28;20022;-68
2021/12/14 08:42:32;;;;;;;24.13;18.88;;;9.50;87.50;;;;;;4990363;28;20548;-70
2021/12/14 08:45:01;;;;;;;26.42;19.63;;;9.50;87.40;;;;;;4990766;28;20506;-69
2021/12/14 08:47:39;;;;;;;25.33;19.77;;;9.50;87.50;;;;;;4988889;28;20030;-68
2021/12/14 08:50:11;;;;;;;26.63;19.02;;;9.50;87.50;;;;;;4981702;28;20113;-69
2021/12/14 08:52:37;;;;;;;28.10;21.45;;;9.50;87.60;;;;;;4989406;28;20027;-68
2021/12/14 08:55:06;;;;;;;23.83;19.13;;;9.50;88.10;;;;;;4990887;28;20421;-69
2021/12/14 08:57:32;;;;;;;27.17;20.08;;;9.50;87.70;;;;;;4989309;28;20189;-70
2021/12/14 09:00:06;;;;;;;25.27;20.90;;;9.50;87.50;;;;;;4991245;28;20123;-69
2021/12/14 09:02:32;;;;;;;28.13;20.55;;;9.60;87.50;;;;;;4989810;28;20034;-69
2021/12/14 09:05:13;;;;;;;27.63;20.05;;;9.60;87.40;;;;;;4989095;28;20041;-70
2021/12/14 09:07:39;;;;;;;26.95;20.30;;;9.60;87.40;;;;;;4990329;28;20046;-69
2021/12/14 09:10:11;;;;;;;29.60;22.20;;;9.60;87.30;;;;;;4994479;28;20053;-70
2021/12/14 09:12:39;;;;;;;28.67;21.33;;;9.60;87.40;;;;;;4990569;28;20043;-68
2021/12/14 09:15:20;;;;;;;28.85;21.25;;;9.60;87.50;;;;;;4990088;28;20145;-68
2021/12/14 09:17:47;;;;;;;27.45;21.15;;;9.60;87.40;;;;;;4990131;28;20390;-68
2021/12/14 09:20:22;;;;;;;27.10;21.67;;;9.50;87.40;;;;;;4989034;28;20041;-69
2021/12/14 09:22:55;;;;;;;26.30;20.73;;;9.50;87.50;;;;;;4990646;28;20025;-69
2021/12/14 09:25:26;;;;;;;28.08;21.35;;;9.60;87.60;;;;;;4990362;28;20084;-69
2021/12/14 09:27:53;;;;;;;32.70;23.90;;;9.60;87.60;;;;;;4989561;28;20026;-70
2021/12/14 09:30:22;;;;;;;32.10;23.25;;;9.60;88.00;;;;;;4988942;28;20042;-70
2021/12/14 09:32:48;;;;;;;31.17;22.90;;;9.60;87.30;;;;;;4990473;28;20321;-69
2021/12/14 09:35:24;;;;;;;33.30;24.77;;;9.60;87.20;;;;;;4990277;28;20026;-70
2021/12/14 09:37:52;;;;;;;33.40;24.52;;;9.50;87.30;;;;;;4989134;28;20034;-69
2021/12/14 09:40:32;;;;;;;33.28;24.75;;;9.50;87.40;;;;;;4971078;28;20019;-69
2021/12/14 09:42:58;;;;;;;33.38;23.95;;;9.50;87.40;;;;;;4979135;28;20022;-70
2021/12/14 09:45:34;;;;;;;32.30;24.40;;;9.60;87.30;;;;;;4988671;28;20187;-69
2021/12/14 09:48:03;;;;;;;33.97;25.42;;;9.50;87.40;;;;;;4990334;28;20023;-69
2021/12/14 09:50:33;;;;;;;32.28;24.52;;;9.60;87.50;;;;;;4986655;28;20042;-69
2021/12/14 09:53:01;;;;;;;35.45;26.20;;;9.60;87.50;;;;;;4989332;28;20030;-69
2021/12/14 09:55:31;;;;;;;35.58;26.50;;;9.60;87.60;;;;;;4988971;28;20364;-70
2021/12/14 09:58:01;;;;;;;38.92;27.08;;;9.60;87.40;;;;;;4990145;28;20030;-70
2021/12/14 10:00:30;;;;;;;34.53;26.17;;;9.60;87.30;;;;;;4989121;28;20037;-69
2021/12/14 10:03:00;;;;;;;39.25;28.33;;;9.60;87.40;;;;;;4981071;28;20030;-70
2021/12/14 10:05:45;;;;;;;35.17;25.40;;;9.60;87.40;;;;;;4979514;28;20076;-70
2021/12/14 10:08:19;;;;;;;36.08;25.17;;;9.60;87.50;;;;;;4987279;28;20034;-69
2021/12/14 10:11:11;;;;;;;41.25;29.02;;;9.60;87.50;;;;;;4982057;28;20065;-69
2021/12/14 10:13:42;;;;;;;42.97;30.52;;;9.60;87.40;;;;;;4990068;28;20073;-70
2021/12/14 10:16:09;;;;;;;42.65;28.98;;;9.60;87.50;;;;;;4988766;28;20076;-69
2021/12/14 10:18:46;;;;;;;46.42;32.10;;;9.60;87.70;;;;;;4987477;28;20121;-69
2021/12/14 10:21:15;;;;;;;41.88;29.20;;;9.60;87.60;;;;;;4989140;28;20022;-70
2021/12/14 10:23:43;;;;;;;43.40;29.15;;;9.60;87.70;;;;;;4989111;28;20073;-68
2021/12/14 10:26:14;;;;;;;44.63;29.92;;;9.60;87.80;;;;;;4989003;28;20041;-68
2021/12/14 10:28:45;;;;;;;44.15;29.50;;;9.50;87.80;;;;;;4987751;28;20053;-68
2021/12/14 10:31:28;;;;;;;41.28;28.95;;;9.60;87.90;;;;;;4988723;28;20030;-69
2021/12/14 10:33:58;;;;;;;39.65;27.30;;;9.60;88.00;;;;;;4988664;28;20374;-68
2021/12/14 10:36:33;;;;;;;44.30;28.98;;;9.60;88.00;;;;;;4987757;28;20465;-68
2021/12/14 10:44:30;;;;;;;40.45;27.48;;;9.70;87.80;;;;;;4991752;28;20129;-69
2021/12/14 10:46:56;;;;;;;41.95;28.73;;;9.70;87.80;;;;;;4988711;28;20026;-69
2021/12/14 10:49:25;;;;;;;41.05;29.23;;;9.70;87.80;;;;;;4992209;28;20030;-68
2021/12/14 10:51:58;;;;;;;41.05;28.67;;;9.70;87.80;;;;;;4992399;28;20425;-69
2021/12/14 10:54:24;;;;;;;43.53;30.38;;;9.70;87.90;;;;;;4992132;28;20041;-69
2021/12/14 10:56:58;;;;;;;43.22;29.00;;;9.70;88.00;;;;;;4991672;28;20035;-69
2021/12/14 10:59:29;;;;;;;43.17;29.75;;;9.80;88.10;;;;;;4990804;28;20030;-69
2021/12/14 11:01:55;;;;;;;47.38;31.02;;;9.80;88.10;;;;;;4991840;28;20444;-69
2021/12/14 11:04:28;;;;;;;49.60;31.17;;;9.80;88.00;;;;;;4992076;28;20034;-69
2021/12/14 11:06:58;;;;;;;46.88;31.15;;;9.80;88.00;;;;;;4990829;28;20041;-68
2021/12/14 11:12:07;;;;;;;44.28;30.50;;;9.90;88.20;;;;;;4992330;28;20050;-70
2021/12/14 11:14:35;;;;;;;46.60;32.70;;;9.80;88.10;;;;;;4991924;28;20794;-69
2021/12/14 11:19:55;;;;;;;49.58;32.95;;;9.90;88.20;;;;;;4990680;28;20398;-70
2021/12/14 11:22:26;;;;;;;48.47;32.67;;;9.90;88.30;;;;;;4990495;28;20154;-69
2021/12/14 11:25:13;;;;;;;46.75;31.23;;;9.90;88.20;;;;;;4985808;28;20124;-70
2021/12/14 11:27:50;;;;;;;51.67;34.03;;;9.90;88.20;;;;;;4991187;28;20073;-69
2021/12/14 11:30:26;;;;;;;46.50;31.52;;;9.90;88.30;;;;;;4991726;28;20500;-69
2021/12/14 11:33:31;;;;;;;50.78;32.40;;;10.00;88.50;;;;;;4991279;28;20030;-69
2021/12/14 11:36:00;;;;;;;54.65;34.38;;;10.00;88.30;;;;;;4971148;28;20038;-69
2021/12/14 11:38:48;;;;;;;54.45;33.17;;;10.00;88.40;;;;;;4989373;28;20026;-70
2021/12/14 11:41:29;;;;;;;49.28;33.47;;;10.00;88.50;;;;;;5003241;28;20056;-70
2021/12/14 11:43:58;;;;;;;49.63;31.75;;;10.00;88.50;;;;;;4990736;28;20047;-69
2021/12/14 11:46:24;;;;;;;51.05;34.53;;;10.00;88.50;;;;;;4988892;28;20084;-69
2021/12/14 11:48:54;;;;;;;52.47;34.50;;;10.00;88.60;;;;;;4990545;28;20034;-69
2021/12/14 11:51:23;;;;;;;51.78;33.80;;;10.00;88.70;;;;;;4989397;28;20029;-69
2021/12/14 11:53:54;;;;;;;48.95;34.15;;;10.00;88.70;;;;;;4990425;28;20130;-70
2021/12/14 11:56:25;;;;;;;48.13;32.90;;;10.00;88.70;;;;;;4988182;28;20397;-69
2021/12/14 11:59:00;;;;;;;55.67;35.88;;;10.10;88.90;;;;;;4990693;28;20069;-69
2021/12/14 12:01:35;;;;;;;53.28;36.10;;;10.10;88.70;;;;;;4991018;28;20018;-69
2021/12/14 12:04:13;;;;;;;57.92;35.30;;;10.10;88.70;;;;;;4991522;28;20473;-69
2021/12/14 12:09:32;;;;;;;49.05;33.30;;;10.10;88.80;;;;;;4981865;28;20076;-68
2021/12/14 12:12:07;;;;;;;50.58;34.72;;;10.10;88.80;;;;;;4976192;28;20417;-69
2021/12/14 12:14:54;;;;;;;58.47;37.35;;;10.10;88.80;;;;;;4988355;28;20524;-68
2021/12/14 12:17:26;;;;;;;56.95;37.35;;;10.10;88.80;;;;;;4976357;28;20477;-69
2021/12/14 12:20:03;;;;;;;53.72;33.15;;;10.10;88.80;;;;;;4985809;28;20026;-69
2021/12/14 12:22:34;;;;;;;58.65;36.25;;;10.10;89.00;;;;;;4985273;28;20475;-69
2021/12/14 12:25:00;;;;;;;58.05;37.35;;;10.00;89.10;;;;;;4988593;28;20088;-69
2021/12/14 12:27:31;;;;;;;64.28;38.97;;;10.10;89.30;;;;;;4990353;28;20022;-69
2021/12/14 12:30:25;;;;;;;56.88;36.08;;;10.10;89.30;;;;;;4990181;28;20374;-69
2021/12/14 12:32:51;;;;;;;61.67;38.75;;;10.10;89.50;;;;;;4989154;28;20026;-68
2021/12/14 12:35:41;;;;;;;62.10;38.50;;;10.10;89.60;;;;;;4983080;28;20033;-68
2021/12/14 12:38:42;;;;;;;64.45;38.58;;;10.00;89.70;;;;;;4988999;28;20037;-69
2021/12/14 12:41:26;;;;;;;62.58;37.78;;;10.10;89.90;;;;;;4986993;28;20170;-69
2021/12/14 12:44:20;;;;;;;57.75;37.25;;;10.10;89.90;;;;;;4990800;28;20105;-69
2021/12/14 12:46:54;;;;;;;59.13;37.67;;;10.00;90.00;;;;;;4984176;28;20417;-69
2021/12/14 12:49:27;;;;;;;57.25;36.95;;;10.00;90.10;;;;;;4974771;28;20488;-69
2021/12/14 12:51:59;;;;;;;63.75;38.95;;;10.00;90.10;;;;;;4983799;28;20110;-69
2021/12/14 12:54:31;;;;;;;62.17;39.38;;;10.00;90.10;;;;;;4983038;28;20027;-68
2021/12/14 12:57:22;;;;;;;64.15;39.47;;;10.10;90.10;;;;;;4987503;28;20113;-68
2021/12/14 12:59:54;;;;;;;63.70;37.38;;;10.10;90.20;;;;;;4987874;28;20551;-68
2021/12/14 13:02:32;;;;;;;61.85;37.90;;;10.10;90.10;;;;;;4988937;28;20439;-68
2021/12/14 13:05:21;;;;;;;66.43;39.70;;;10.10;90.10;;;;;;4990004;28;20035;-68
2021/12/14 13:07:53;;;;;;;61.70;37.63;;;10.10;90.20;;;;;;4988475;28;20070;-68
2021/12/14 13:10:30;;;;;;;70.30;41.17;;;10.10;90.20;;;;;;4989710;28;20042;-68
2021/12/14 13:13:28;;;;;;;68.00;38.75;;;10.10;90.30;;;;;;4986111;28;20033;-68
2021/12/14 13:16:15;;;;;;;58.35;35.70;;;10.10;90.30;;;;;;4964814;28;20054;-68
2021/12/14 13:18:53;;;;;;;58.10;36.40;;;10.10;90.40;;;;;;4980194;28;20022;-68
2021/12/14 13:21:58;;;;;;;59.78;37.97;;;10.10;90.40;;;;;;4974130;28;20136;-68
2021/12/14 13:24:33;;;;;;;61.92;38.13;;;10.10;90.40;;;;;;4989519;28;20115;-68
2021/12/14 13:27:01;;;;;;;64.90;39.45;;;10.10;90.50;;;;;;4986058;28;20022;-68
2021/12/14 13:29:58;;;;;;;58.55;36.55;;;10.10;90.50;;;;;;4988868;28;20473;-68
2021/12/14 13:32:29;;;;;;;61.50;38.45;;;10.10;90.50;;;;;;4988756;28;20690;-69
2021/12/14 13:35:07;;;;;;;60.83;38.60;;;10.10;90.70;;;;;;4989098;28;20026;-69
2021/12/14 13:37:49;;;;;;;66.78;39.08;;;10.10;90.70;;;;;;4986829;28;20405;-69
2021/12/14 13:40:23;;;;;;;61.95;35.88;;;10.10;90.80;;;;;;4989070;28;20113;-69
2021/12/14 13:42:58;;;;;;;56.22;34.95;;;10.10;90.80;;;;;;4988863;28;20034;-69
2021/12/14 13:45:27;;;;;;;59.35;34.30;;;10.10;90.80;;;;;;4980377;28;20409;-69
2021/12/14 13:47:54;;;;;;;57.55;35.70;;;10.10;90.90;;;;;;4988862;28;20077;-69